sensor_id;sensor_type;location;lat;lon;timestamp;temperature;humidity
19868;DHT22;10096;51.112;6.776;2023-01-31T00:00:27;6.10;1.00
19868;DHT22;10096;51.112;6.776;2023-01-31T00:02:54;6.00;1.00
19868;DHT22;10096;51.112;6.776;2023-01-31T00:05:20;6.00;1.00
19868;DHT22;10096;51.112;6.776;2023-01-31T00:07:47;6.00;1.00
19868;DHT22;10096;51.112;6.776;2023-01-31T00:10:15;6.10;1.00
19868;DHT22;10096;51.112;6.776;2023-01-31T00:12:42;6.00;1.00
19868;DHT22;10096;51.112;6.776;2023-01-31T00:15:10;6.10;1.00
19868;DHT22;10096;51.112;6.776;2023-01-31T00:17:40;6.00;1.00
19868;DHT22;10096;51.112;6.776;2023-01-31T00:20:09;5.90;1.00
19868;DHT22;10096;51.112;6.776;2023-01-31T00:22:36;5.90;1.00
19868;DHT22;10096;51.112;6.776;2023-01-31T00:25:03;5.90;1.00
19868;DHT22;10096;51.112;6.776;2023-01-31T00:27:30;5.90;1.00
19868;DHT22;10096;51.112;6.776;2023-01-31T00:29:57;5.90;1.00
19868;DHT22;10096;51.112;6.776;2023-01-31T00:32:26;5.90;1.00
19868;DHT22;10096;51.112;6.776;2023-01-31T00:34:53;5.90;1.00
19868;DHT22;10096;51.112;6.776;2023-01-31T00:37:20;5.80;1.00
19868;DHT22;10096;51.112;6.776;2023-01-31T00:39:47;5.90;1.00
19868;DHT22;10096;51.112;6.776;2023-01-31T00:42:14;5.80;1.00
19868;DHT22;10096;51.112;6.776;2023-01-31T00:44:41;5.80;1.00
19868;DHT22;10096;51.112;6.776;2023-01-31T00:47:08;5.90;1.00
19868;DHT22;10096;51.112;6.776;2023-01-31T00:49:36;5.50;1.00
19868;DHT22;10096;51.112;6.776;2023-01-31T00:52:03;5.20;1.00
19868;DHT22;10096;51.112;6.776;2023-01-31T00:54:30;5.40;13.70
19868;DHT22;10096;51.112;6.776;2023-01-31T00:56:57;5.30;23.30
19868;DHT22;10096;51.112;6.776;2023-01-31T00:59:24;5.20;31.90
19868;DHT22;10096;51.112;6.776;2023-01-31T01:01:50;5.20;68.30
19868;DHT22;10096;51.112;6.776;2023-01-31T01:04:17;5.20;93.90
19868;DHT22;10096;51.112;6.776;2023-01-31T01:06:46;5.30;90.00
19868;DHT22;10096;51.112;6.776;2023-01-31T01:09:14;5.30;79.00
19868;DHT22;10096;51.112;6.776;2023-01-31T01:11:43;5.30;50.20
19868;DHT22;10096;51.112;6.776;2023-01-31T01:14:09;5.40;15.20
19868;DHT22;10096;51.112;6.776;2023-01-31T01:16:38;5.40;27.40
19868;DHT22;10096;51.112;6.776;2023-01-31T01:19:06;5.40;3.10
19868;DHT22;10096;51.112;6.776;2023-01-31T01:21:34;5.40;1.00
19868;DHT22;10096;51.112;6.776;2023-01-31T01:24:12;5.60;16.50
19868;DHT22;10096;51.112;6.776;2023-01-31T01:26:40;5.50;1.00
19868;DHT22;10096;51.112;6.776;2023-01-31T01:29:07;5.60;1.00
19868;DHT22;10096;51.112;6.776;2023-01-31T01:31:34;5.30;1.00
19868;DHT22;10096;51.112;6.776;2023-01-31T01:34:03;5.60;1.00
19868;DHT22;10096;51.112;6.776;2023-01-31T01:36:32;5.70;1.00
19868;DHT22;10096;51.112;6.776;2023-01-31T01:39:00;5.50;1.00
19868;DHT22;10096;51.112;6.776;2023-01-31T01:41:29;5.80;1.00
19868;DHT22;10096;51.112;6.776;2023-01-31T01:43:58;5.50;1.00
19868;DHT22;10096;51.112;6.776;2023-01-31T01:46:29;5.80;1.00
19868;DHT22;10096;51.112;6.776;2023-01-31T01:49:02;5.50;1.00
19868;DHT22;10096;51.112;6.776;2023-01-31T01:51:31;5.50;1.00
19868;DHT22;10096;51.112;6.776;2023-01-31T01:54:03;5.50;1.00
19868;DHT22;10096;51.112;6.776;2023-01-31T01:56:36;5.50;1.00
19868;DHT22;10096;51.112;6.776;2023-01-31T01:59:07;5.60;1.00
19868;DHT22;10096;51.112;6.776;2023-01-31T02:01:37;5.40;1.00
19868;DHT22;10096;51.112;6.776;2023-01-31T02:04:07;5.60;1.00
19868;DHT22;10096;51.112;6.776;2023-01-31T02:06:36;5.50;1.00
19868;DHT22;10096;51.112;6.776;2023-01-31T02:09:06;5.50;1.00
19868;DHT22;10096;51.112;6.776;2023-01-31T02:11:36;5.60;1.00
19868;DHT22;10096;51.112;6.776;2023-01-31T02:14:06;5.60;1.00
19868;DHT22;10096;51.112;6.776;2023-01-31T02:16:34;5.60;1.00
19868;DHT22;10096;51.112;6.776;2023-01-31T02:19:02;5.80;1.00
19868;DHT22;10096;51.112;6.776;2023-01-31T02:22:07;5.60;1.00
19868;DHT22;10096;51.112;6.776;2023-01-31T02:25:22;5.60;1.00
19868;DHT22;10096;51.112;6.776;2023-01-31T02:28:38;5.50;1.00
19868;DHT22;10096;51.112;6.776;2023-01-31T02:31:24;5.40;1.00
19868;DHT22;10096;51.112;6.776;2023-01-31T02:34:01;5.30;1.00
19868;DHT22;10096;51.112;6.776;2023-01-31T02:36:37;5.20;1.00
19868;DHT22;10096;51.112;6.776;2023-01-31T02:39:17;5.10;1.00
19868;DHT22;10096;51.112;6.776;2023-01-31T02:41:52;5.10;9.80
19868;DHT22;10096;51.112;6.776;2023-01-31T02:44:26;5.30;1.00
19868;DHT22;10096;51.112;6.776;2023-01-31T02:47:19;5.10;7.90
19868;DHT22;10096;51.112;6.776;2023-01-31T02:49:52;5.00;36.10
19868;DHT22;10096;51.112;6.776;2023-01-31T02:52:28;4.90;56.30
19868;DHT22;10096;51.112;6.776;2023-01-31T02:55:07;4.90;56.50
19868;DHT22;10096;51.112;6.776;2023-01-31T02:57:56;5.10;42.20
19868;DHT22;10096;51.112;6.776;2023-01-31T03:00:25;5.10;18.70
19868;DHT22;10096;51.112;6.776;2023-01-31T03:02:53;5.10;20.30
19868;DHT22;10096;51.112;6.776;2023-01-31T03:05:22;5.10;25.20
19868;DHT22;10096;51.112;6.776;2023-01-31T03:07:52;5.10;33.50
19868;DHT22;10096;51.112;6.776;2023-01-31T03:10:33;5.10;24.00
19868;DHT22;10096;51.112;6.776;2023-01-31T03:13:18;5.00;32.00
19868;DHT22;10096;51.112;6.776;2023-01-31T03:15:58;5.00;24.10
19868;DHT22;10096;51.112;6.776;2023-01-31T03:18:47;4.90;8.50
19868;DHT22;10096;51.112;6.776;2023-01-31T03:21:22;4.80;22.00
19868;DHT22;10096;51.112;6.776;2023-01-31T03:23:53;4.70;44.70
19868;DHT22;10096;51.112;6.776;2023-01-31T03:26:22;4.50;88.10
19868;DHT22;10096;51.112;6.776;2023-01-31T03:28:52;4.50;98.80
19868;DHT22;10096;51.112;6.776;2023-01-31T03:31:24;4.60;99.90
19868;DHT22;10096;51.112;6.776;2023-01-31T03:33:55;4.40;99.90
19868;DHT22;10096;51.112;6.776;2023-01-31T03:36:30;4.40;99.90
19868;DHT22;10096;51.112;6.776;2023-01-31T03:39:08;4.20;99.90
19868;DHT22;10096;51.112;6.776;2023-01-31T03:41:45;4.20;99.90
19868;DHT22;10096;51.112;6.776;2023-01-31T03:44:20;4.00;99.90
19868;DHT22;10096;51.112;6.776;2023-01-31T03:46:53;4.00;99.90
19868;DHT22;10096;51.112;6.776;2023-01-31T03:49:24;4.00;99.90
19868;DHT22;10096;51.112;6.776;2023-01-31T03:51:57;4.10;99.90
19868;DHT22;10096;51.112;6.776;2023-01-31T03:54:28;3.90;99.90
19868;DHT22;10096;51.112;6.776;2023-01-31T03:56:59;4.00;99.90
19868;DHT22;10096;51.112;6.776;2023-01-31T03:59:33;3.90;99.90
19868;DHT22;10096;51.112;6.776;2023-01-31T04:02:03;4.00;99.90
19868;DHT22;10096;51.112;6.776;2023-01-31T04:04:35;3.90;99.90
19868;DHT22;10096;51.112;6.776;2023-01-31T04:07:05;3.90;1.00
19868;DHT22;10096;51.112;6.776;2023-01-31T04:09:32;3.80;1.00
19868;DHT22;10096;51.112;6.776;2023-01-31T04:12:01;3.80;1.00
19868;DHT22;10096;51.112;6.776;2023-01-31T04:14:28;3.70;1.00
19868;DHT22;10096;51.112;6.776;2023-01-31T04:16:55;3.70;1.00
19868;DHT22;10096;51.112;6.776;2023-01-31T04:19:22;3.80;1.00
19868;DHT22;10096;51.112;6.776;2023-01-31T04:21:49;3.70;1.00
19868;DHT22;10096;51.112;6.776;2023-01-31T04:24:17;3.70;1.00
19868;DHT22;10096;51.112;6.776;2023-01-31T04:26:44;3.70;1.00
19868;DHT22;10096;51.112;6.776;2023-01-31T04:29:11;3.70;1.00
19868;DHT22;10096;51.112;6.776;2023-01-31T04:31:37;3.70;1.00
19868;DHT22;10096;51.112;6.776;2023-01-31T04:34:07;3.70;1.00
19868;DHT22;10096;51.112;6.776;2023-01-31T04:36:34;3.80;1.00
19868;DHT22;10096;51.112;6.776;2023-01-31T04:39:01;3.90;1.00
19868;DHT22;10096;51.112;6.776;2023-01-31T04:41:29;4.00;1.00
19868;DHT22;10096;51.112;6.776;2023-01-31T04:43:56;4.00;1.00
19868;DHT22;10096;51.112;6.776;2023-01-31T04:46:23;4.20;1.00
19868;DHT22;10096;51.112;6.776;2023-01-31T04:48:50;4.20;1.00
19868;DHT22;10096;51.112;6.776;2023-01-31T04:51:17;4.50;1.00
19868;DHT22;10096;51.112;6.776;2023-01-31T04:53:44;4.30;1.00
19868;DHT22;10096;51.112;6.776;2023-01-31T04:56:11;4.40;1.00
19868;DHT22;10096;51.112;6.776;2023-01-31T04:58:40;4.60;1.00
19868;DHT22;10096;51.112;6.776;2023-01-31T05:01:08;4.40;1.00
19868;DHT22;10096;51.112;6.776;2023-01-31T05:03:34;4.40;1.00
19868;DHT22;10096;51.112;6.776;2023-01-31T05:06:01;4.50;1.00
19868;DHT22;10096;51.112;6.776;2023-01-31T05:08:28;4.50;1.00
19868;DHT22;10096;51.112;6.776;2023-01-31T05:10:59;4.50;1.00
19868;DHT22;10096;51.112;6.776;2023-01-31T05:13:27;4.50;99.90
19868;DHT22;10096;51.112;6.776;2023-01-31T05:15:56;4.50;99.90
19868;DHT22;10096;51.112;6.776;2023-01-31T05:18:23;4.60;99.90
19868;DHT22;10096;51.112;6.776;2023-01-31T05:20:50;4.70;99.90
19868;DHT22;10096;51.112;6.776;2023-01-31T05:23:18;4.70;99.90
19868;DHT22;10096;51.112;6.776;2023-01-31T05:25:51;4.70;99.90
19868;DHT22;10096;51.112;6.776;2023-01-31T05:28:18;4.80;99.90
19868;DHT22;10096;51.112;6.776;2023-01-31T05:30:46;4.80;99.90
19868;DHT22;10096;51.112;6.776;2023-01-31T05:33:14;4.80;99.90
19868;DHT22;10096;51.112;6.776;2023-01-31T05:35:41;5.00;99.90
19868;DHT22;10096;51.112;6.776;2023-01-31T05:38:09;5.00;99.90
19868;DHT22;10096;51.112;6.776;2023-01-31T05:40:36;5.00;99.90
19868;DHT22;10096;51.112;6.776;2023-01-31T05:43:03;5.10;99.90
19868;DHT22;10096;51.112;6.776;2023-01-31T05:45:30;5.30;99.90
19868;DHT22;10096;51.112;6.776;2023-01-31T05:47:57;5.10;99.90
19868;DHT22;10096;51.112;6.776;2023-01-31T05:50:26;5.10;99.90
19868;DHT22;10096;51.112;6.776;2023-01-31T05:52:55;5.10;99.90
19868;DHT22;10096;51.112;6.776;2023-01-31T05:55:24;5.10;99.90
19868;DHT22;10096;51.112;6.776;2023-01-31T05:57:52;5.20;99.90
19868;DHT22;10096;51.112;6.776;2023-01-31T06:00:20;5.10;99.90
19868;DHT22;10096;51.112;6.776;2023-01-31T06:02:47;5.30;99.90
19868;DHT22;10096;51.112;6.776;2023-01-31T06:05:14;5.10;99.90
19868;DHT22;10096;51.112;6.776;2023-01-31T06:07:43;5.20;99.90
19868;DHT22;10096;51.112;6.776;2023-01-31T06:10:10;5.20;99.90
19868;DHT22;10096;51.112;6.776;2023-01-31T06:12:38;5.00;99.90
19868;DHT22;10096;51.112;6.776;2023-01-31T06:15:06;5.10;99.90
19868;DHT22;10096;51.112;6.776;2023-01-31T06:17:32;5.10;99.90
19868;DHT22;10096;51.112;6.776;2023-01-31T06:19:59;5.30;99.90
19868;DHT22;10096;51.112;6.776;2023-01-31T06:23:08;5.10;99.90
19868;DHT22;10096;51.112;6.776;2023-01-31T06:25:19;4.90;99.90
19868;DHT22;10096;51.112;6.776;2023-01-31T06:27:46;5.50;99.90
19868;DHT22;10096;51.112;6.776;2023-01-31T06:30:13;5.30;99.90
19868;DHT22;10096;51.112;6.776;2023-01-31T06:32:40;5.40;99.90
19868;DHT22;10096;51.112;6.776;2023-01-31T06:35:07;5.40;99.90
19868;DHT22;10096;51.112;6.776;2023-01-31T06:37:34;5.50;99.90
19868;DHT22;10096;51.112;6.776;2023-01-31T06:40:01;5.60;99.90
19868;DHT22;10096;51.112;6.776;2023-01-31T06:42:30;5.60;99.90
19868;DHT22;10096;51.112;6.776;2023-01-31T06:44:57;5.50;99.90
19868;DHT22;10096;51.112;6.776;2023-01-31T06:47:24;5.80;94.60
19868;DHT22;10096;51.112;6.776;2023-01-31T06:49:51;5.60;87.30
19868;DHT22;10096;51.112;6.776;2023-01-31T06:52:18;5.60;92.60
19868;DHT22;10096;51.112;6.776;2023-01-31T06:54:45;5.60;96.50
19868;DHT22;10096;51.112;6.776;2023-01-31T06:57:12;5.60;64.40
19868;DHT22;10096;51.112;6.776;2023-01-31T06:59:40;5.70;35.70
19868;DHT22;10096;51.112;6.776;2023-01-31T07:02:08;5.70;25.90
19868;DHT22;10096;51.112;6.776;2023-01-31T07:04:35;5.70;47.30
19868;DHT22;10096;51.112;6.776;2023-01-31T07:07:02;5.90;22.50
19868;DHT22;10096;51.112;6.776;2023-01-31T07:09:29;5.70;9.80
19868;DHT22;10096;51.112;6.776;2023-01-31T07:11:56;5.70;37.00
19868;DHT22;10096;51.112;6.776;2023-01-31T07:14:23;5.80;46.00
19868;DHT22;10096;51.112;6.776;2023-01-31T07:16:52;5.90;23.80
19868;DHT22;10096;51.112;6.776;2023-01-31T07:19:19;6.10;1.00
19868;DHT22;10096;51.112;6.776;2023-01-31T07:21:46;5.90;1.90
19868;DHT22;10096;51.112;6.776;2023-01-31T07:24:13;6.20;1.00
19868;DHT22;10096;51.112;6.776;2023-01-31T07:26:40;6.00;1.00
19868;DHT22;10096;51.112;6.776;2023-01-31T07:29:07;5.70;1.00
19868;DHT22;10096;51.112;6.776;2023-01-31T07:31:34;5.80;11.20
19868;DHT22;10096;51.112;6.776;2023-01-31T07:34:03;5.80;1.00
19868;DHT22;10096;51.112;6.776;2023-01-31T07:36:30;5.90;1.30
19868;DHT22;10096;51.112;6.776;2023-01-31T07:38:57;5.90;1.00
19868;DHT22;10096;51.112;6.776;2023-01-31T07:41:25;5.90;1.00
19868;DHT22;10096;51.112;6.776;2023-01-31T07:43:52;5.90;1.00
19868;DHT22;10096;51.112;6.776;2023-01-31T07:46:19;5.90;1.00
19868;DHT22;10096;51.112;6.776;2023-01-31T07:48:46;5.90;1.00
19868;DHT22;10096;51.112;6.776;2023-01-31T07:51:15;6.10;1.00
19868;DHT22;10096;51.112;6.776;2023-01-31T07:53:42;5.90;1.00
19868;DHT22;10096;51.112;6.776;2023-01-31T07:56:11;6.10;1.00
19868;DHT22;10096;51.112;6.776;2023-01-31T07:58:39;6.10;1.00
19868;DHT22;10096;51.112;6.776;2023-01-31T08:01:09;6.20;1.00
19868;DHT22;10096;51.112;6.776;2023-01-31T08:03:55;6.10;1.00
19868;DHT22;10096;51.112;6.776;2023-01-31T08:06:26;6.20;1.00
19868;DHT22;10096;51.112;6.776;2023-01-31T08:08:54;6.30;1.00
19868;DHT22;10096;51.112;6.776;2023-01-31T08:11:21;6.40;1.00
19868;DHT22;10096;51.112;6.776;2023-01-31T08:13:48;6.50;1.00
19868;DHT22;10096;51.112;6.776;2023-01-31T08:16:15;6.60;1.00
19868;DHT22;10096;51.112;6.776;2023-01-31T08:18:42;6.60;1.00
19868;DHT22;10096;51.112;6.776;2023-01-31T08:21:11;6.40;1.00
19868;DHT22;10096;51.112;6.776;2023-01-31T08:23:40;6.40;1.00
19868;DHT22;10096;51.112;6.776;2023-01-31T08:26:09;6.60;1.00
19868;DHT22;10096;51.112;6.776;2023-01-31T08:28:37;6.50;1.00
19868;DHT22;10096;51.112;6.776;2023-01-31T08:31:05;6.60;1.00
19868;DHT22;10096;51.112;6.776;2023-01-31T08:33:32;6.70;1.00
19868;DHT22;10096;51.112;6.776;2023-01-31T08:36:08;6.70;1.00
19868;DHT22;10096;51.112;6.776;2023-01-31T08:38:35;6.80;1.00
19868;DHT22;10096;51.112;6.776;2023-01-31T08:41:03;6.80;1.00
19868;DHT22;10096;51.112;6.776;2023-01-31T08:43:30;6.80;1.00
19868;DHT22;10096;51.112;6.776;2023-01-31T08:45:57;6.80;1.00
19868;DHT22;10096;51.112;6.776;2023-01-31T08:48:24;6.80;1.00
19868;DHT22;10096;51.112;6.776;2023-01-31T08:50:51;6.80;1.00
19868;DHT22;10096;51.112;6.776;2023-01-31T08:53:18;7.10;1.00
19868;DHT22;10096;51.112;6.776;2023-01-31T08:55:45;7.00;1.00
19868;DHT22;10096;51.112;6.776;2023-01-31T08:58:14;6.80;1.00
19868;DHT22;10096;51.112;6.776;2023-01-31T09:00:40;6.80;1.00
19868;DHT22;10096;51.112;6.776;2023-01-31T09:03:13;6.90;1.00
19868;DHT22;10096;51.112;6.776;2023-01-31T09:05:41;6.90;1.00
19868;DHT22;10096;51.112;6.776;2023-01-31T09:08:08;7.20;1.00
19868;DHT22;10096;51.112;6.776;2023-01-31T09:10:36;7.00;1.00
19868;DHT22;10096;51.112;6.776;2023-01-31T09:13:03;7.00;1.00
19868;DHT22;10096;51.112;6.776;2023-01-31T09:15:31;6.90;1.00
19868;DHT22;10096;51.112;6.776;2023-01-31T09:17:58;7.10;1.00
19868;DHT22;10096;51.112;6.776;2023-01-31T09:20:26;7.10;1.00
19868;DHT22;10096;51.112;6.776;2023-01-31T09:22:53;7.20;1.00
19868;DHT22;10096;51.112;6.776;2023-01-31T09:25:20;7.10;1.00
19868;DHT22;10096;51.112;6.776;2023-01-31T09:27:47;7.20;1.00
19868;DHT22;10096;51.112;6.776;2023-01-31T09:30:17;7.30;1.00
19868;DHT22;10096;51.112;6.776;2023-01-31T09:32:46;7.20;1.00
19868;DHT22;10096;51.112;6.776;2023-01-31T09:35:14;7.10;1.00
19868;DHT22;10096;51.112;6.776;2023-01-31T09:37:43;7.10;1.00
19868;DHT22;10096;51.112;6.776;2023-01-31T09:40:15;7.20;1.00
19868;DHT22;10096;51.112;6.776;2023-01-31T09:42:48;7.20;1.00
19868;DHT22;10096;51.112;6.776;2023-01-31T09:45:25;7.10;1.00
19868;DHT22;10096;51.112;6.776;2023-01-31T09:47:57;7.20;1.00
19868;DHT22;10096;51.112;6.776;2023-01-31T09:50:30;7.40;1.00
19868;DHT22;10096;51.112;6.776;2023-01-31T09:52:59;7.30;1.00
19868;DHT22;10096;51.112;6.776;2023-01-31T09:55:35;7.40;1.00
19868;DHT22;10096;51.112;6.776;2023-01-31T09:58:14;7.40;1.00
19868;DHT22;10096;51.112;6.776;2023-01-31T10:00:47;7.50;1.00
19868;DHT22;10096;51.112;6.776;2023-01-31T10:03:28;7.50;1.00
19868;DHT22;10096;51.112;6.776;2023-01-31T10:06:02;7.60;1.00
19868;DHT22;10096;51.112;6.776;2023-01-31T10:08:40;7.60;1.00
19868;DHT22;10096;51.112;6.776;2023-01-31T10:11:14;7.60;1.00
19868;DHT22;10096;51.112;6.776;2023-01-31T10:13:45;7.60;1.00
19868;DHT22;10096;51.112;6.776;2023-01-31T10:16:20;7.70;1.00
19868;DHT22;10096;51.112;6.776;2023-01-31T10:18:56;7.80;1.00
19868;DHT22;10096;51.112;6.776;2023-01-31T10:21:30;7.70;1.00
19868;DHT22;10096;51.112;6.776;2023-01-31T10:24:02;7.70;1.00
19868;DHT22;10096;51.112;6.776;2023-01-31T10:26:34;7.70;1.00
19868;DHT22;10096;51.112;6.776;2023-01-31T10:29:07;7.80;1.00
19868;DHT22;10096;51.112;6.776;2023-01-31T10:31:40;7.70;1.00
19868;DHT22;10096;51.112;6.776;2023-01-31T10:34:13;7.60;1.00
19868;DHT22;10096;51.112;6.776;2023-01-31T10:36:43;7.60;1.00
19868;DHT22;10096;51.112;6.776;2023-01-31T10:39:17;7.60;1.00
19868;DHT22;10096;51.112;6.776;2023-01-31T10:41:58;7.90;1.00
19868;DHT22;10096;51.112;6.776;2023-01-31T10:44:35;8.00;1.00
19868;DHT22;10096;51.112;6.776;2023-01-31T10:47:11;7.80;1.00
19868;DHT22;10096;51.112;6.776;2023-01-31T10:49:40;8.00;1.00
19868;DHT22;10096;51.112;6.776;2023-01-31T10:52:20;8.10;1.00
19868;DHT22;10096;51.112;6.776;2023-01-31T10:54:59;8.30;1.00
19868;DHT22;10096;51.112;6.776;2023-01-31T10:57:28;8.10;1.00
19868;DHT22;10096;51.112;6.776;2023-01-31T10:59:56;8.20;1.00
19868;DHT22;10096;51.112;6.776;2023-01-31T11:02:25;8.40;1.00
19868;DHT22;10096;51.112;6.776;2023-01-31T11:04:55;8.50;1.00
19868;DHT22;10096;51.112;6.776;2023-01-31T11:07:23;8.60;1.00
19868;DHT22;10096;51.112;6.776;2023-01-31T11:09:52;8.40;1.00
19868;DHT22;10096;51.112;6.776;2023-01-31T11:12:20;8.50;1.00
19868;DHT22;10096;51.112;6.776;2023-01-31T11:15:04;8.40;1.00
19868;DHT22;10096;51.112;6.776;2023-01-31T11:17:35;8.50;1.00
19868;DHT22;10096;51.112;6.776;2023-01-31T11:20:05;8.40;1.00
19868;DHT22;10096;51.112;6.776;2023-01-31T11:22:34;8.50;1.00
19868;DHT22;10096;51.112;6.776;2023-01-31T11:25:03;8.70;1.00
19868;DHT22;10096;51.112;6.776;2023-01-31T11:27:37;8.70;1.00
19868;DHT22;10096;51.112;6.776;2023-01-31T11:30:06;8.60;1.00
19868;DHT22;10096;51.112;6.776;2023-01-31T11:32:35;8.30;1.00
19868;DHT22;10096;51.112;6.776;2023-01-31T11:35:19;8.30;1.00
19868;DHT22;10096;51.112;6.776;2023-01-31T11:37:52;8.30;1.00
19868;DHT22;10096;51.112;6.776;2023-01-31T11:40:21;8.20;1.00
19868;DHT22;10096;51.112;6.776;2023-01-31T11:42:53;8.10;1.00
19868;DHT22;10096;51.112;6.776;2023-01-31T11:45:22;8.00;1.00
19868;DHT22;10096;51.112;6.776;2023-01-31T11:47:53;8.10;1.00
19868;DHT22;10096;51.112;6.776;2023-01-31T11:53:42;8.10;1.00
19868;DHT22;10096;51.112;6.776;2023-01-31T11:56:13;7.80;1.00
19868;DHT22;10096;51.112;6.776;2023-01-31T12:03:40;8.00;1.00
19868;DHT22;10096;51.112;6.776;2023-01-31T12:05:31;7.90;1.00
19868;DHT22;10096;51.112;6.776;2023-01-31T12:07:58;7.90;1.00
19868;DHT22;10096;51.112;6.776;2023-01-31T12:10:34;8.10;1.00
19868;DHT22;10096;51.112;6.776;2023-01-31T12:13:10;8.10;1.00
19868;DHT22;10096;51.112;6.776;2023-01-31T12:15:49;7.90;1.00
19868;DHT22;10096;51.112;6.776;2023-01-31T12:18:23;8.00;1.00
19868;DHT22;10096;51.112;6.776;2023-01-31T12:21:02;8.00;1.00
19868;DHT22;10096;51.112;6.776;2023-01-31T12:23:40;8.00;1.00
19868;DHT22;10096;51.112;6.776;2023-01-31T12:29:45;8.10;1.00
19868;DHT22;10096;51.112;6.776;2023-01-31T12:32:30;8.00;1.00
19868;DHT22;10096;51.112;6.776;2023-01-31T12:35:21;8.30;1.00
19868;DHT22;10096;51.112;6.776;2023-01-31T12:37:59;8.00;1.00
19868;DHT22;10096;51.112;6.776;2023-01-31T12:40:36;8.30;1.00
19868;DHT22;10096;51.112;6.776;2023-01-31T12:43:16;8.30;1.00
19868;DHT22;10096;51.112;6.776;2023-01-31T12:45:57;8.20;1.00
19868;DHT22;10096;51.112;6.776;2023-01-31T12:49:08;8.40;1.00
19868;DHT22;10096;51.112;6.776;2023-01-31T12:51:44;8.20;1.00
19868;DHT22;10096;51.112;6.776;2023-01-31T12:54:28;8.20;3.10
19868;DHT22;10096;51.112;6.776;2023-01-31T12:57:09;8.40;1.00
19868;DHT22;10096;51.112;6.776;2023-01-31T12:59:50;8.30;1.00
19868;DHT22;10096;51.112;6.776;2023-01-31T13:02:33;8.40;1.00
19868;DHT22;10096;51.112;6.776;2023-01-31T13:05:08;8.30;1.00
19868;DHT22;10096;51.112;6.776;2023-01-31T13:07:41;8.00;31.20
19868;DHT22;10096;51.112;6.776;2023-01-31T13:10:22;8.20;32.70
19868;DHT22;10096;51.112;6.776;2023-01-31T13:12:52;8.00;51.90
19868;DHT22;10096;51.112;6.776;2023-01-31T13:15:26;8.10;52.90
19868;DHT22;10096;51.112;6.776;2023-01-31T13:17:59;8.10;23.10
19868;DHT22;10096;51.112;6.776;2023-01-31T13:20:32;8.50;10.80
19868;DHT22;10096;51.112;6.776;2023-01-31T13:23:03;8.40;21.60
19868;DHT22;10096;51.112;6.776;2023-01-31T13:25:36;8.40;9.70
19868;DHT22;10096;51.112;6.776;2023-01-31T13:28:10;8.30;26.70
19868;DHT22;10096;51.112;6.776;2023-01-31T13:30:41;8.20;55.10
19868;DHT22;10096;51.112;6.776;2023-01-31T13:33:20;8.30;36.70
19868;DHT22;10096;51.112;6.776;2023-01-31T13:35:58;8.20;28.10
19868;DHT22;10096;51.112;6.776;2023-01-31T13:38:33;8.20;66.40
19868;DHT22;10096;51.112;6.776;2023-01-31T13:41:03;8.20;99.90
19868;DHT22;10096;51.112;6.776;2023-01-31T13:43:31;8.30;99.90
19868;DHT22;10096;51.112;6.776;2023-01-31T13:46:01;8.30;99.90
19868;DHT22;10096;51.112;6.776;2023-01-31T13:48:35;8.30;99.90
19868;DHT22;10096;51.112;6.776;2023-01-31T13:51:07;8.10;99.90
19868;DHT22;10096;51.112;6.776;2023-01-31T13:53:43;8.10;99.90
19868;DHT22;10096;51.112;6.776;2023-01-31T13:56:19;8.10;1.00
19868;DHT22;10096;51.112;6.776;2023-01-31T13:58:47;8.00;1.00
19868;DHT22;10096;51.112;6.776;2023-01-31T14:01:18;8.00;1.00
19868;DHT22;10096;51.112;6.776;2023-01-31T14:04:34;8.10;1.00
19868;DHT22;10096;51.112;6.776;2023-01-31T14:07:22;8.10;1.00
19868;DHT22;10096;51.112;6.776;2023-01-31T14:10:25;8.00;1.00
19868;DHT22;10096;51.112;6.776;2023-01-31T14:13:24;8.10;1.00
19868;DHT22;10096;51.112;6.776;2023-01-31T14:15:53;8.00;1.00
19868;DHT22;10096;51.112;6.776;2023-01-31T14:18:39;8.00;1.00
19868;DHT22;10096;51.112;6.776;2023-01-31T14:28:00;8.10;58.80
19868;DHT22;10096;51.112;6.776;2023-01-31T14:30:38;8.10;74.10
19868;DHT22;10096;51.112;6.776;2023-01-31T14:33:22;8.20;1.00
19868;DHT22;10096;51.112;6.776;2023-01-31T14:36:19;8.20;1.00
19868;DHT22;10096;51.112;6.776;2023-01-31T14:42:05;8.20;1.00
19868;DHT22;10096;51.112;6.776;2023-01-31T14:44:47;8.20;1.00
19868;DHT22;10096;51.112;6.776;2023-01-31T14:47:30;8.10;1.00
19868;DHT22;10096;51.112;6.776;2023-01-31T14:50:29;8.20;1.00
19868;DHT22;10096;51.112;6.776;2023-01-31T14:53:09;8.30;1.00
19868;DHT22;10096;51.112;6.776;2023-01-31T14:55:52;8.20;1.00
19868;DHT22;10096;51.112;6.776;2023-01-31T14:58:24;8.30;1.00
19868;DHT22;10096;51.112;6.776;2023-01-31T15:00:56;8.30;1.00
19868;DHT22;10096;51.112;6.776;2023-01-31T15:03:27;8.20;1.00
19868;DHT22;10096;51.112;6.776;2023-01-31T15:06:08;8.30;1.00
19868;DHT22;10096;51.112;6.776;2023-01-31T15:08:44;8.20;1.00
19868;DHT22;10096;51.112;6.776;2023-01-31T15:13:56;8.00;51.30
19868;DHT22;10096;51.112;6.776;2023-01-31T15:16:26;8.00;80.20
19868;DHT22;10096;51.112;6.776;2023-01-31T15:19:00;8.10;99.90
19868;DHT22;10096;51.112;6.776;2023-01-31T15:21:32;8.00;99.90
19868;DHT22;10096;51.112;6.776;2023-01-31T15:24:02;8.20;99.90
19868;DHT22;10096;51.112;6.776;2023-01-31T15:26:32;8.00;99.90
19868;DHT22;10096;51.112;6.776;2023-01-31T15:29:00;8.00;99.90
19868;DHT22;10096;51.112;6.776;2023-01-31T15:31:34;8.00;99.90
19868;DHT22;10096;51.112;6.776;2023-01-31T15:34:10;7.90;99.90
19868;DHT22;10096;51.112;6.776;2023-01-31T15:36:44;7.90;1.00
19868;DHT22;10096;51.112;6.776;2023-01-31T15:39:21;8.00;1.00
19868;DHT22;10096;51.112;6.776;2023-01-31T15:41:50;8.10;1.00
19868;DHT22;10096;51.112;6.776;2023-01-31T15:44:19;7.90;1.00
19868;DHT22;10096;51.112;6.776;2023-01-31T15:46:48;8.00;1.00
19868;DHT22;10096;51.112;6.776;2023-01-31T15:49:24;8.10;99.90
19868;DHT22;10096;51.112;6.776;2023-01-31T15:52:09;7.90;99.90
19868;DHT22;10096;51.112;6.776;2023-01-31T15:54:38;8.00;99.90
19868;DHT22;10096;51.112;6.776;2023-01-31T15:57:10;8.00;99.90
19868;DHT22;10096;51.112;6.776;2023-01-31T15:59:44;8.00;99.90
19868;DHT22;10096;51.112;6.776;2023-01-31T16:02:20;8.00;1.00
19868;DHT22;10096;51.112;6.776;2023-01-31T16:04:47;8.30;1.00
19868;DHT22;10096;51.112;6.776;2023-01-31T16:07:16;8.30;99.90
19868;DHT22;10096;51.112;6.776;2023-01-31T16:09:43;8.30;99.90
19868;DHT22;10096;51.112;6.776;2023-01-31T16:12:11;8.10;99.90
19868;DHT22;10096;51.112;6.776;2023-01-31T16:14:40;8.10;99.90
19868;DHT22;10096;51.112;6.776;2023-01-31T16:17:08;8.20;99.90
19868;DHT22;10096;51.112;6.776;2023-01-31T16:19:37;8.40;99.90
19868;DHT22;10096;51.112;6.776;2023-01-31T16:22:21;8.20;99.90
19868;DHT22;10096;51.112;6.776;2023-01-31T16:24:54;8.20;99.90
19868;DHT22;10096;51.112;6.776;2023-01-31T16:27:21;8.20;99.90
19868;DHT22;10096;51.112;6.776;2023-01-31T16:29:51;8.20;99.90
19868;DHT22;10096;51.112;6.776;2023-01-31T16:32:20;8.20;99.90
19868;DHT22;10096;51.112;6.776;2023-01-31T16:34:54;8.20;99.90
19868;DHT22;10096;51.112;6.776;2023-01-31T16:37:30;8.20;99.90
19868;DHT22;10096;51.112;6.776;2023-01-31T16:40:04;8.20;99.90
19868;DHT22;10096;51.112;6.776;2023-01-31T16:42:36;8.30;99.90
19868;DHT22;10096;51.112;6.776;2023-01-31T16:45:26;8.40;99.90
19868;DHT22;10096;51.112;6.776;2023-01-31T16:47:53;8.30;99.90